UAKK 201630Z 07005MPS CAVOK 08/04 Q1026 NOSIG RMK QFE721/0962
QNH:(hPa/inHg/mmHg)1026 / 30.3 / 770
QFE:(hPa/inHg/mmHg)961 / 28.36 / 720
Temperature8
Dew Point4
Visibility> 10000
WeatherCAVOK
Cloud Cover
Transition Height10000 m./34600 ft.
Transition LevelFL360
SQUAWK